sensor_id;sensor_type;location;lat;lon;timestamp;temperature;humidity
45549;DHT22;31270;48.328;10.096;2023-06-10T00:00:20;16.00;99.90
45549;DHT22;31270;48.328;10.096;2023-06-10T00:02:46;16.00;99.90
45549;DHT22;31270;48.328;10.096;2023-06-10T00:05:11;15.90;99.90
45549;DHT22;31270;48.328;10.096;2023-06-10T00:07:37;15.90;99.90
45549;DHT22;31270;48.328;10.096;2023-06-10T00:10:07;15.80;99.90
45549;DHT22;31270;48.328;10.096;2023-06-10T00:12:33;15.80;99.90
45549;DHT22;31270;48.328;10.096;2023-06-10T00:15:06;15.80;99.90
45549;DHT22;31270;48.328;10.096;2023-06-10T00:17:32;15.70;99.90
45549;DHT22;31270;48.328;10.096;2023-06-10T00:19:58;15.70;99.90
45549;DHT22;31270;48.328;10.096;2023-06-10T00:22:24;15.70;99.90
45549;DHT22;31270;48.328;10.096;2023-06-10T00:24:55;15.70;99.90
45549;DHT22;31270;48.328;10.096;2023-06-10T00:27:22;15.60;99.90
45549;DHT22;31270;48.328;10.096;2023-06-10T00:29:47;15.70;99.90
45549;DHT22;31270;48.328;10.096;2023-06-10T00:32:13;15.60;99.90
45549;DHT22;31270;48.328;10.096;2023-06-10T00:34:38;15.60;99.90
45549;DHT22;31270;48.328;10.096;2023-06-10T00:37:05;15.70;99.90
45549;DHT22;31270;48.328;10.096;2023-06-10T00:39:31;15.70;99.90
45549;DHT22;31270;48.328;10.096;2023-06-10T00:41:57;15.70;99.90
45549;DHT22;31270;48.328;10.096;2023-06-10T00:44:23;15.60;99.90
45549;DHT22;31270;48.328;10.096;2023-06-10T00:46:48;15.60;99.90
45549;DHT22;31270;48.328;10.096;2023-06-10T00:49:16;15.60;99.90
45549;DHT22;31270;48.328;10.096;2023-06-10T00:51:43;15.60;99.90
45549;DHT22;31270;48.328;10.096;2023-06-10T00:54:09;15.50;99.90
45549;DHT22;31270;48.328;10.096;2023-06-10T00:56:35;15.50;99.90
45549;DHT22;31270;48.328;10.096;2023-06-10T00:59:01;15.50;99.90
45549;DHT22;31270;48.328;10.096;2023-06-10T01:01:28;15.50;99.90
45549;DHT22;31270;48.328;10.096;2023-06-10T01:03:54;15.40;99.90
45549;DHT22;31270;48.328;10.096;2023-06-10T01:06:42;15.50;99.90
45549;DHT22;31270;48.328;10.096;2023-06-10T01:09:13;15.50;99.90
45549;DHT22;31270;48.328;10.096;2023-06-10T01:11:54;15.40;99.90
45549;DHT22;31270;48.328;10.096;2023-06-10T01:14:23;15.40;99.90
45549;DHT22;31270;48.328;10.096;2023-06-10T01:16:49;15.40;99.90
45549;DHT22;31270;48.328;10.096;2023-06-10T01:19:15;15.40;99.90
45549;DHT22;31270;48.328;10.096;2023-06-10T01:21:43;15.40;99.90
45549;DHT22;31270;48.328;10.096;2023-06-10T01:24:14;15.40;99.90
45549;DHT22;31270;48.328;10.096;2023-06-10T01:26:45;15.30;99.90
45549;DHT22;31270;48.328;10.096;2023-06-10T01:29:28;15.30;99.90
45549;DHT22;31270;48.328;10.096;2023-06-10T01:32:06;15.30;99.90
45549;DHT22;31270;48.328;10.096;2023-06-10T01:34:34;15.20;99.90
45549;DHT22;31270;48.328;10.096;2023-06-10T01:37:02;15.20;99.90
45549;DHT22;31270;48.328;10.096;2023-06-10T01:39:29;15.20;99.90
45549;DHT22;31270;48.328;10.096;2023-06-10T01:41:56;15.20;99.90
45549;DHT22;31270;48.328;10.096;2023-06-10T01:44:23;15.20;99.90
45549;DHT22;31270;48.328;10.096;2023-06-10T01:46:49;15.20;99.90
45549;DHT22;31270;48.328;10.096;2023-06-10T01:49:14;15.10;99.90
45549;DHT22;31270;48.328;10.096;2023-06-10T01:51:40;15.10;99.90
45549;DHT22;31270;48.328;10.096;2023-06-10T01:54:06;15.00;99.90
45549;DHT22;31270;48.328;10.096;2023-06-10T01:56:32;15.00;99.90
45549;DHT22;31270;48.328;10.096;2023-06-10T01:58:58;14.80;99.90
45549;DHT22;31270;48.328;10.096;2023-06-10T02:01:27;14.90;99.90
45549;DHT22;31270;48.328;10.096;2023-06-10T02:03:53;14.90;99.90
45549;DHT22;31270;48.328;10.096;2023-06-10T02:06:18;14.80;99.90
45549;DHT22;31270;48.328;10.096;2023-06-10T02:08:44;14.80;99.90
45549;DHT22;31270;48.328;10.096;2023-06-10T02:11:09;14.70;99.90
45549;DHT22;31270;48.328;10.096;2023-06-10T02:13:35;14.70;99.90
45549;DHT22;31270;48.328;10.096;2023-06-10T02:16:01;14.70;99.90
45549;DHT22;31270;48.328;10.096;2023-06-10T02:18:27;14.70;99.90
45549;DHT22;31270;48.328;10.096;2023-06-10T02:20:53;14.70;99.90
45549;DHT22;31270;48.328;10.096;2023-06-10T02:23:19;14.60;99.90
45549;DHT22;31270;48.328;10.096;2023-06-10T02:25:45;14.60;99.90
45549;DHT22;31270;48.328;10.096;2023-06-10T02:28:12;14.70;99.90
45549;DHT22;31270;48.328;10.096;2023-06-10T02:30:41;14.70;99.90
45549;DHT22;31270;48.328;10.096;2023-06-10T02:33:07;14.60;99.90
45549;DHT22;31270;48.328;10.096;2023-06-10T02:35:39;14.70;99.90
45549;DHT22;31270;48.328;10.096;2023-06-10T02:38:04;14.70;99.90
45549;DHT22;31270;48.328;10.096;2023-06-10T02:40:30;14.70;99.90
45549;DHT22;31270;48.328;10.096;2023-06-10T02:42:57;14.60;99.90
45549;DHT22;31270;48.328;10.096;2023-06-10T02:45:23;14.60;99.90
45549;DHT22;31270;48.328;10.096;2023-06-10T02:47:48;14.60;99.90
45549;DHT22;31270;48.328;10.096;2023-06-10T02:50:14;14.50;99.90
45549;DHT22;31270;48.328;10.096;2023-06-10T02:52:39;14.50;99.90
45549;DHT22;31270;48.328;10.096;2023-06-10T02:55:05;14.50;99.90
45549;DHT22;31270;48.328;10.096;2023-06-10T02:57:32;14.40;99.90
45549;DHT22;31270;48.328;10.096;2023-06-10T02:59:57;14.50;99.90
45549;DHT22;31270;48.328;10.096;2023-06-10T03:02:24;14.40;99.90
45549;DHT22;31270;48.328;10.096;2023-06-10T03:04:55;14.40;99.90
45549;DHT22;31270;48.328;10.096;2023-06-10T03:07:21;14.40;99.90
45549;DHT22;31270;48.328;10.096;2023-06-10T03:09:46;14.40;99.90
45549;DHT22;31270;48.328;10.096;2023-06-10T03:12:12;14.40;99.90
45549;DHT22;31270;48.328;10.096;2023-06-10T03:14:38;14.30;99.90
45549;DHT22;31270;48.328;10.096;2023-06-10T03:17:04;14.30;99.90
45549;DHT22;31270;48.328;10.096;2023-06-10T03:19:30;14.30;99.90
45549;DHT22;31270;48.328;10.096;2023-06-10T03:22:10;14.30;99.90
45549;DHT22;31270;48.328;10.096;2023-06-10T03:24:35;14.30;99.90
45549;DHT22;31270;48.328;10.096;2023-06-10T03:27:02;14.20;99.90
45549;DHT22;31270;48.328;10.096;2023-06-10T03:29:30;14.30;99.90
45549;DHT22;31270;48.328;10.096;2023-06-10T03:31:56;14.30;99.90
45549;DHT22;31270;48.328;10.096;2023-06-10T03:34:22;14.20;99.90
45549;DHT22;31270;48.328;10.096;2023-06-10T03:36:48;14.20;99.90
45549;DHT22;31270;48.328;10.096;2023-06-10T03:39:15;14.30;99.90
45549;DHT22;31270;48.328;10.096;2023-06-10T03:41:40;14.20;99.90
45549;DHT22;31270;48.328;10.096;2023-06-10T03:44:06;14.20;99.90
45549;DHT22;31270;48.328;10.096;2023-06-10T03:46:32;14.30;99.90
45549;DHT22;31270;48.328;10.096;2023-06-10T03:48:57;14.30;99.90
45549;DHT22;31270;48.328;10.096;2023-06-10T03:51:26;14.30;99.90
45549;DHT22;31270;48.328;10.096;2023-06-10T03:53:52;14.30;99.90
45549;DHT22;31270;48.328;10.096;2023-06-10T03:56:18;14.30;99.90
45549;DHT22;31270;48.328;10.096;2023-06-10T03:58:43;14.30;99.90
45549;DHT22;31270;48.328;10.096;2023-06-10T04:01:10;14.40;99.90
45549;DHT22;31270;48.328;10.096;2023-06-10T04:03:36;14.40;99.90
45549;DHT22;31270;48.328;10.096;2023-06-10T04:06:02;14.40;99.90
45549;DHT22;31270;48.328;10.096;2023-06-10T04:08:28;14.50;99.90
45549;DHT22;31270;48.328;10.096;2023-06-10T04:10:54;14.50;99.90
45549;DHT22;31270;48.328;10.096;2023-06-10T04:13:19;14.50;99.90
45549;DHT22;31270;48.328;10.096;2023-06-10T04:15:45;14.50;99.90
45549;DHT22;31270;48.328;10.096;2023-06-10T04:18:11;14.60;99.90
45549;DHT22;31270;48.328;10.096;2023-06-10T04:20:37;14.60;99.90
45549;DHT22;31270;48.328;10.096;2023-06-10T04:23:03;14.60;99.90
45549;DHT22;31270;48.328;10.096;2023-06-10T04:25:29;14.70;99.90
45549;DHT22;31270;48.328;10.096;2023-06-10T04:27:54;14.70;99.90
45549;DHT22;31270;48.328;10.096;2023-06-10T04:30:20;14.70;99.90
45549;DHT22;31270;48.328;10.096;2023-06-10T04:32:47;14.80;99.90
45549;DHT22;31270;48.328;10.096;2023-06-10T04:35:13;14.90;99.90
45549;DHT22;31270;48.328;10.096;2023-06-10T04:37:40;14.90;99.90
45549;DHT22;31270;48.328;10.096;2023-06-10T04:40:07;15.10;99.90
45549;DHT22;31270;48.328;10.096;2023-06-10T04:42:33;15.10;99.90
45549;DHT22;31270;48.328;10.096;2023-06-10T04:44:58;15.20;99.90
45549;DHT22;31270;48.328;10.096;2023-06-10T04:47:24;15.30;99.90
45549;DHT22;31270;48.328;10.096;2023-06-10T04:49:49;15.30;99.90
45549;DHT22;31270;48.328;10.096;2023-06-10T04:52:16;15.50;99.90
45549;DHT22;31270;48.328;10.096;2023-06-10T04:54:43;15.50;99.90
45549;DHT22;31270;48.328;10.096;2023-06-10T04:57:08;15.70;99.90
45549;DHT22;31270;48.328;10.096;2023-06-10T04:59:37;15.80;99.90
45549;DHT22;31270;48.328;10.096;2023-06-10T05:02:06;15.90;99.90
45549;DHT22;31270;48.328;10.096;2023-06-10T05:04:32;16.00;99.90
45549;DHT22;31270;48.328;10.096;2023-06-10T05:06:57;16.10;99.90
45549;DHT22;31270;48.328;10.096;2023-06-10T05:09:23;16.10;99.90
45549;DHT22;31270;48.328;10.096;2023-06-10T05:11:48;16.30;99.90
45549;DHT22;31270;48.328;10.096;2023-06-10T05:14:14;16.40;99.90
45549;DHT22;31270;48.328;10.096;2023-06-10T05:16:44;16.50;99.90
45549;DHT22;31270;48.328;10.096;2023-06-10T05:19:09;16.70;99.90
45549;DHT22;31270;48.328;10.096;2023-06-10T05:21:35;16.90;99.90
45549;DHT22;31270;48.328;10.096;2023-06-10T05:24:01;17.10;99.90
45549;DHT22;31270;48.328;10.096;2023-06-10T05:26:27;17.30;99.90
45549;DHT22;31270;48.328;10.096;2023-06-10T05:28:54;17.50;99.90
45549;DHT22;31270;48.328;10.096;2023-06-10T05:31:19;17.80;99.90
45549;DHT22;31270;48.328;10.096;2023-06-10T05:33:45;17.80;99.90
45549;DHT22;31270;48.328;10.096;2023-06-10T05:36:11;17.90;99.90
45549;DHT22;31270;48.328;10.096;2023-06-10T05:38:36;17.90;99.90
45549;DHT22;31270;48.328;10.096;2023-06-10T05:41:02;17.80;99.90
45549;DHT22;31270;48.328;10.096;2023-06-10T05:43:28;18.00;99.90
45549;DHT22;31270;48.328;10.096;2023-06-10T05:45:54;18.20;99.90
45549;DHT22;31270;48.328;10.096;2023-06-10T05:48:20;18.40;99.90
45549;DHT22;31270;48.328;10.096;2023-06-10T05:50:46;18.50;99.90
45549;DHT22;31270;48.328;10.096;2023-06-10T05:53:14;18.60;99.90
45549;DHT22;31270;48.328;10.096;2023-06-10T05:55:45;18.90;99.90
45549;DHT22;31270;48.328;10.096;2023-06-10T05:58:11;19.00;99.90
45549;DHT22;31270;48.328;10.096;2023-06-10T06:00:40;19.30;99.90
45549;DHT22;31270;48.328;10.096;2023-06-10T06:03:09;19.40;99.90
45549;DHT22;31270;48.328;10.096;2023-06-10T06:05:36;19.50;99.90
45549;DHT22;31270;48.328;10.096;2023-06-10T06:08:06;19.60;99.90
45549;DHT22;31270;48.328;10.096;2023-06-10T06:10:32;19.90;99.90
45549;DHT22;31270;48.328;10.096;2023-06-10T06:12:58;20.00;99.90
45549;DHT22;31270;48.328;10.096;2023-06-10T06:15:24;19.90;99.90
45549;DHT22;31270;48.328;10.096;2023-06-10T06:17:49;19.90;99.90
45549;DHT22;31270;48.328;10.096;2023-06-10T06:20:18;19.90;99.90
45549;DHT22;31270;48.328;10.096;2023-06-10T06:22:44;20.10;99.90
45549;DHT22;31270;48.328;10.096;2023-06-10T06:25:10;20.40;99.90
45549;DHT22;31270;48.328;10.096;2023-06-10T06:27:35;20.50;99.90
45549;DHT22;31270;48.328;10.096;2023-06-10T06:30:01;20.50;99.90
45549;DHT22;31270;48.328;10.096;2023-06-10T06:32:26;20.60;99.90
45549;DHT22;31270;48.328;10.096;2023-06-10T06:34:53;20.60;99.90
45549;DHT22;31270;48.328;10.096;2023-06-10T06:37:21;20.70;99.90
45549;DHT22;31270;48.328;10.096;2023-06-10T06:39:47;20.80;99.90
45549;DHT22;31270;48.328;10.096;2023-06-10T06:42:12;21.00;99.90
45549;DHT22;31270;48.328;10.096;2023-06-10T06:44:38;21.30;99.90
45549;DHT22;31270;48.328;10.096;2023-06-10T06:47:03;21.40;99.90
45549;DHT22;31270;48.328;10.096;2023-06-10T06:49:29;21.60;99.90
45549;DHT22;31270;48.328;10.096;2023-06-10T06:51:55;21.80;99.90
45549;DHT22;31270;48.328;10.096;2023-06-10T06:54:21;22.00;99.90
45549;DHT22;31270;48.328;10.096;2023-06-10T06:56:46;22.50;99.90
45549;DHT22;31270;48.328;10.096;2023-06-10T06:59:12;22.60;99.90
45549;DHT22;31270;48.328;10.096;2023-06-10T07:01:39;22.50;99.90
45549;DHT22;31270;48.328;10.096;2023-06-10T07:04:05;22.60;99.90
45549;DHT22;31270;48.328;10.096;2023-06-10T07:06:30;22.70;99.90
45549;DHT22;31270;48.328;10.096;2023-06-10T07:08:57;22.70;99.90
45549;DHT22;31270;48.328;10.096;2023-06-10T07:11:23;22.80;99.90
45549;DHT22;31270;48.328;10.096;2023-06-10T07:13:48;23.10;99.90
45549;DHT22;31270;48.328;10.096;2023-06-10T07:16:14;23.30;99.90
45549;DHT22;31270;48.328;10.096;2023-06-10T07:18:40;23.20;99.90
45549;DHT22;31270;48.328;10.096;2023-06-10T07:21:05;23.40;99.90
45549;DHT22;31270;48.328;10.096;2023-06-10T07:23:31;23.50;99.90
45549;DHT22;31270;48.328;10.096;2023-06-10T07:25:57;23.40;99.90
45549;DHT22;31270;48.328;10.096;2023-06-10T07:28:22;23.60;99.90
45549;DHT22;31270;48.328;10.096;2023-06-10T07:30:48;23.80;99.90
45549;DHT22;31270;48.328;10.096;2023-06-10T07:33:14;23.70;99.90
45549;DHT22;31270;48.328;10.096;2023-06-10T07:35:39;24.00;99.90
45549;DHT22;31270;48.328;10.096;2023-06-10T07:38:05;24.10;99.90
45549;DHT22;31270;48.328;10.096;2023-06-10T07:40:31;24.30;99.90
45549;DHT22;31270;48.328;10.096;2023-06-10T07:42:56;24.50;99.90
45549;DHT22;31270;48.328;10.096;2023-06-10T07:45:22;24.60;99.90
45549;DHT22;31270;48.328;10.096;2023-06-10T07:47:48;24.70;99.90
45549;DHT22;31270;48.328;10.096;2023-06-10T07:50:13;24.70;99.90
45549;DHT22;31270;48.328;10.096;2023-06-10T07:52:39;24.80;99.90
45549;DHT22;31270;48.328;10.096;2023-06-10T07:55:05;24.70;99.90
45549;DHT22;31270;48.328;10.096;2023-06-10T07:57:31;25.00;99.90
45549;DHT22;31270;48.328;10.096;2023-06-10T08:00:00;25.20;99.90
45549;DHT22;31270;48.328;10.096;2023-06-10T08:02:27;25.00;99.90
45549;DHT22;31270;48.328;10.096;2023-06-10T08:04:52;25.10;99.90
45549;DHT22;31270;48.328;10.096;2023-06-10T08:07:18;25.40;99.90
45549;DHT22;31270;48.328;10.096;2023-06-10T08:09:44;25.50;99.90
45549;DHT22;31270;48.328;10.096;2023-06-10T08:12:10;25.80;99.90
45549;DHT22;31270;48.328;10.096;2023-06-10T08:14:35;25.80;99.90
45549;DHT22;31270;48.328;10.096;2023-06-10T08:17:02;26.20;99.90
45549;DHT22;31270;48.328;10.096;2023-06-10T08:19:30;26.00;99.90
45549;DHT22;31270;48.328;10.096;2023-06-10T08:21:56;26.30;99.90
45549;DHT22;31270;48.328;10.096;2023-06-10T08:24:22;26.50;99.90
45549;DHT22;31270;48.328;10.096;2023-06-10T08:26:47;26.40;99.90
45549;DHT22;31270;48.328;10.096;2023-06-10T08:29:13;26.50;99.90
45549;DHT22;31270;48.328;10.096;2023-06-10T08:31:43;26.50;99.90
45549;DHT22;31270;48.328;10.096;2023-06-10T08:34:09;26.20;99.90
45549;DHT22;31270;48.328;10.096;2023-06-10T08:36:35;26.30;99.90
45549;DHT22;31270;48.328;10.096;2023-06-10T08:39:01;26.60;99.90
45549;DHT22;31270;48.328;10.096;2023-06-10T08:41:28;26.50;99.90
45549;DHT22;31270;48.328;10.096;2023-06-10T08:44:10;26.50;99.90
45549;DHT22;31270;48.328;10.096;2023-06-10T08:46:37;26.90;99.90
45549;DHT22;31270;48.328;10.096;2023-06-10T08:49:06;26.90;99.90
45549;DHT22;31270;48.328;10.096;2023-06-10T08:51:34;26.60;99.90
45549;DHT22;31270;48.328;10.096;2023-06-10T08:54:18;26.30;99.90
45549;DHT22;31270;48.328;10.096;2023-06-10T08:56:48;26.20;99.90
45549;DHT22;31270;48.328;10.096;2023-06-10T08:59:15;26.20;99.90
45549;DHT22;31270;48.328;10.096;2023-06-10T09:01:44;26.30;99.90
45549;DHT22;31270;48.328;10.096;2023-06-10T09:04:10;26.70;99.90
45549;DHT22;31270;48.328;10.096;2023-06-10T09:06:37;26.80;99.90
45549;DHT22;31270;48.328;10.096;2023-06-10T09:09:05;26.80;99.90
45549;DHT22;31270;48.328;10.096;2023-06-10T09:11:31;27.00;99.90
45549;DHT22;31270;48.328;10.096;2023-06-10T09:13:57;27.00;99.90
45549;DHT22;31270;48.328;10.096;2023-06-10T09:16:26;27.30;99.90
45549;DHT22;31270;48.328;10.096;2023-06-10T09:18:53;27.30;99.90
45549;DHT22;31270;48.328;10.096;2023-06-10T09:21:24;27.30;99.90
45549;DHT22;31270;48.328;10.096;2023-06-10T09:23:50;27.60;99.90
45549;DHT22;31270;48.328;10.096;2023-06-10T09:26:16;27.70;99.90
45549;DHT22;31270;48.328;10.096;2023-06-10T09:28:43;27.80;99.90
45549;DHT22;31270;48.328;10.096;2023-06-10T09:31:09;28.20;99.90
45549;DHT22;31270;48.328;10.096;2023-06-10T09:33:39;28.30;99.90
45549;DHT22;31270;48.328;10.096;2023-06-10T09:36:05;27.70;99.90
45549;DHT22;31270;48.328;10.096;2023-06-10T09:38:32;27.40;99.90
45549;DHT22;31270;48.328;10.096;2023-06-10T09:40:58;27.30;99.90
45549;DHT22;31270;48.328;10.096;2023-06-10T09:43:41;27.40;99.90
45549;DHT22;31270;48.328;10.096;2023-06-10T09:46:15;27.10;99.90
45549;DHT22;31270;48.328;10.096;2023-06-10T09:48:46;27.00;99.90
45549;DHT22;31270;48.328;10.096;2023-06-10T09:51:15;26.90;99.90
45549;DHT22;31270;48.328;10.096;2023-06-10T09:53:42;26.80;99.90
45549;DHT22;31270;48.328;10.096;2023-06-10T09:56:08;26.50;99.90
45549;DHT22;31270;48.328;10.096;2023-06-10T09:58:37;26.30;99.90
45549;DHT22;31270;48.328;10.096;2023-06-10T10:01:09;25.80;99.90
45549;DHT22;31270;48.328;10.096;2023-06-10T10:03:50;25.40;99.90
45549;DHT22;31270;48.328;10.096;2023-06-10T10:06:18;25.60;99.90
45549;DHT22;31270;48.328;10.096;2023-06-10T10:08:49;26.20;99.90
45549;DHT22;31270;48.328;10.096;2023-06-10T10:11:18;26.30;99.90
45549;DHT22;31270;48.328;10.096;2023-06-10T10:13:49;26.20;99.90
45549;DHT22;31270;48.328;10.096;2023-06-10T10:16:19;26.50;99.90
45549;DHT22;31270;48.328;10.096;2023-06-10T10:19:07;26.60;99.90
45549;DHT22;31270;48.328;10.096;2023-06-10T10:21:43;26.40;99.90
45549;DHT22;31270;48.328;10.096;2023-06-10T10:24:18;26.60;99.90
45549;DHT22;31270;48.328;10.096;2023-06-10T10:26:47;26.80;99.90
45549;DHT22;31270;48.328;10.096;2023-06-10T10:29:31;27.00;99.90
45549;DHT22;31270;48.328;10.096;2023-06-10T10:31:59;26.80;99.90
45549;DHT22;31270;48.328;10.096;2023-06-10T10:34:49;26.80;99.90
45549;DHT22;31270;48.328;10.096;2023-06-10T10:37:17;27.00;99.90
45549;DHT22;31270;48.328;10.096;2023-06-10T10:39:45;27.50;99.90
45549;DHT22;31270;48.328;10.096;2023-06-10T10:42:11;28.20;99.90
45549;DHT22;31270;48.328;10.096;2023-06-10T10:44:38;28.00;99.90
45549;DHT22;31270;48.328;10.096;2023-06-10T10:47:08;28.10;99.90
45549;DHT22;31270;48.328;10.096;2023-06-10T10:49:35;28.10;99.90
45549;DHT22;31270;48.328;10.096;2023-06-10T10:52:03;28.10;99.90
45549;DHT22;31270;48.328;10.096;2023-06-10T10:54:35;28.00;99.90
45549;DHT22;31270;48.328;10.096;2023-06-10T10:57:20;28.20;99.90
45549;DHT22;31270;48.328;10.096;2023-06-10T11:05:06;28.20;99.90
45549;DHT22;31270;48.328;10.096;2023-06-10T11:07:33;27.80;99.90
45549;DHT22;31270;48.328;10.096;2023-06-10T11:15:19;26.50;99.90
45549;DHT22;31270;48.328;10.096;2023-06-10T11:18:08;26.80;99.90
45549;DHT22;31270;48.328;10.096;2023-06-10T11:25:51;26.60;99.90
45549;DHT22;31270;48.328;10.096;2023-06-10T11:28:20;26.90;99.90
45549;DHT22;31270;48.328;10.096;2023-06-10T11:30:46;27.20;99.90
45549;DHT22;31270;48.328;10.096;2023-06-10T11:33:16;27.50;99.90
45549;DHT22;31270;48.328;10.096;2023-06-10T11:35:43;28.00;99.90
45549;DHT22;31270;48.328;10.096;2023-06-10T11:38:09;28.20;99.90
45549;DHT22;31270;48.328;10.096;2023-06-10T11:40:36;27.90;98.90
45549;DHT22;31270;48.328;10.096;2023-06-10T11:43:04;28.10;99.30
45549;DHT22;31270;48.328;10.096;2023-06-10T11:45:30;28.20;99.70
45549;DHT22;31270;48.328;10.096;2023-06-10T11:47:57;28.80;99.90
45549;DHT22;31270;48.328;10.096;2023-06-10T11:50:33;29.30;99.90
45549;DHT22;31270;48.328;10.096;2023-06-10T11:52:59;29.10;99.70
45549;DHT22;31270;48.328;10.096;2023-06-10T11:55:44;29.20;97.50
45549;DHT22;31270;48.328;10.096;2023-06-10T11:58:15;29.10;97.80
45549;DHT22;31270;48.328;10.096;2023-06-10T12:00:49;29.00;97.30
45549;DHT22;31270;48.328;10.096;2023-06-10T12:03:15;29.00;97.70
45549;DHT22;31270;48.328;10.096;2023-06-10T12:06:04;29.20;97.30
45549;DHT22;31270;48.328;10.096;2023-06-10T12:08:30;29.00;96.40
45549;DHT22;31270;48.328;10.096;2023-06-10T12:10:57;28.90;96.20
45549;DHT22;31270;48.328;10.096;2023-06-10T12:13:27;29.30;97.80
45549;DHT22;31270;48.328;10.096;2023-06-10T12:15:52;29.30;98.10
45549;DHT22;31270;48.328;10.096;2023-06-10T12:18:22;29.50;96.30
45549;DHT22;31270;48.328;10.096;2023-06-10T12:20:49;29.60;96.00
45549;DHT22;31270;48.328;10.096;2023-06-10T12:23:17;29.60;96.20
45549;DHT22;31270;48.328;10.096;2023-06-10T12:25:53;29.20;95.10
45549;DHT22;31270;48.328;10.096;2023-06-10T12:28:26;28.30;96.50
45549;DHT22;31270;48.328;10.096;2023-06-10T12:31:06;27.60;96.80
45549;DHT22;31270;48.328;10.096;2023-06-10T12:33:33;27.30;98.00
45549;DHT22;31270;48.328;10.096;2023-06-10T12:35:58;27.50;97.80
45549;DHT22;31270;48.328;10.096;2023-06-10T12:38:25;28.00;98.20
45549;DHT22;31270;48.328;10.096;2023-06-10T12:40:57;28.30;98.40
45549;DHT22;31270;48.328;10.096;2023-06-10T12:43:26;28.20;95.80
45549;DHT22;31270;48.328;10.096;2023-06-10T12:45:52;27.60;96.20
45549;DHT22;31270;48.328;10.096;2023-06-10T12:48:22;27.20;97.10
45549;DHT22;31270;48.328;10.096;2023-06-10T12:50:52;27.10;97.50
45549;DHT22;31270;48.328;10.096;2023-06-10T12:53:19;27.30;97.20
45549;DHT22;31270;48.328;10.096;2023-06-10T12:55:45;27.00;97.20
45549;DHT22;31270;48.328;10.096;2023-06-10T12:58:11;26.60;97.50
45549;DHT22;31270;48.328;10.096;2023-06-10T13:00:37;26.40;99.00
45549;DHT22;31270;48.328;10.096;2023-06-10T13:03:04;26.30;98.20
45549;DHT22;31270;48.328;10.096;2023-06-10T13:05:31;26.10;97.90
45549;DHT22;31270;48.328;10.096;2023-06-10T13:07:57;26.00;98.30
45549;DHT22;31270;48.328;10.096;2023-06-10T13:10:23;26.30;99.00
45549;DHT22;31270;48.328;10.096;2023-06-10T13:12:50;26.80;99.20
45549;DHT22;31270;48.328;10.096;2023-06-10T13:15:17;27.20;98.50
45549;DHT22;31270;48.328;10.096;2023-06-10T13:17:43;27.40;98.00
45549;DHT22;31270;48.328;10.096;2023-06-10T13:20:09;27.10;97.20
45549;DHT22;31270;48.328;10.096;2023-06-10T13:22:36;27.10;97.70
45549;DHT22;31270;48.328;10.096;2023-06-10T13:25:03;27.10;97.30
45549;DHT22;31270;48.328;10.096;2023-06-10T13:27:29;27.20;97.70
45549;DHT22;31270;48.328;10.096;2023-06-10T13:29:55;27.40;98.50
45549;DHT22;31270;48.328;10.096;2023-06-10T13:32:20;27.40;96.80
45549;DHT22;31270;48.328;10.096;2023-06-10T13:34:46;27.60;97.60
45549;DHT22;31270;48.328;10.096;2023-06-10T13:37:12;27.60;97.10
45549;DHT22;31270;48.328;10.096;2023-06-10T13:39:42;27.90;97.80
45549;DHT22;31270;48.328;10.096;2023-06-10T13:42:08;28.10;97.30
45549;DHT22;31270;48.328;10.096;2023-06-10T13:44:34;28.20;95.40
45549;DHT22;31270;48.328;10.096;2023-06-10T13:47:02;28.10;95.30
45549;DHT22;31270;48.328;10.096;2023-06-10T13:49:28;28.10;95.30
45549;DHT22;31270;48.328;10.096;2023-06-10T13:51:54;27.90;95.50
45549;DHT22;31270;48.328;10.096;2023-06-10T13:54:20;28.10;95.50
45549;DHT22;31270;48.328;10.096;2023-06-10T13:56:46;28.30;94.80
45549;DHT22;31270;48.328;10.096;2023-06-10T13:59:12;28.30;95.80
45549;DHT22;31270;48.328;10.096;2023-06-10T14:01:38;28.20;95.50
45549;DHT22;31270;48.328;10.096;2023-06-10T14:04:06;28.20;95.50
45549;DHT22;31270;48.328;10.096;2023-06-10T14:06:32;27.90;95.00
45549;DHT22;31270;48.328;10.096;2023-06-10T14:08:59;27.80;95.40
45549;DHT22;31270;48.328;10.096;2023-06-10T14:11:24;27.70;94.80
45549;DHT22;31270;48.328;10.096;2023-06-10T14:13:50;27.80;95.80
45549;DHT22;31270;48.328;10.096;2023-06-10T14:16:15;27.80;95.90
45549;DHT22;31270;48.328;10.096;2023-06-10T14:18:41;27.70;96.40
45549;DHT22;31270;48.328;10.096;2023-06-10T14:21:06;27.80;98.20
45549;DHT22;31270;48.328;10.096;2023-06-10T14:23:32;28.00;97.00
45549;DHT22;31270;48.328;10.096;2023-06-10T14:25:58;28.00;96.80
45549;DHT22;31270;48.328;10.096;2023-06-10T14:28:24;28.00;96.00
45549;DHT22;31270;48.328;10.096;2023-06-10T14:30:51;27.50;95.60
45549;DHT22;31270;48.328;10.096;2023-06-10T14:33:17;27.40;95.70
45549;DHT22;31270;48.328;10.096;2023-06-10T14:35:43;27.30;95.30
45549;DHT22;31270;48.328;10.096;2023-06-10T14:38:09;27.30;95.30
45549;DHT22;31270;48.328;10.096;2023-06-10T14:40:35;27.30;95.40
45549;DHT22;31270;48.328;10.096;2023-06-10T14:43:19;27.20;95.00
45549;DHT22;31270;48.328;10.096;2023-06-10T14:45:45;27.00;95.30
45549;DHT22;31270;48.328;10.096;2023-06-10T14:48:11;26.80;95.60
45549;DHT22;31270;48.328;10.096;2023-06-10T14:50:38;26.70;96.30
45549;DHT22;31270;48.328;10.096;2023-06-10T14:53:05;26.70;97.50
45549;DHT22;31270;48.328;10.096;2023-06-10T14:55:31;26.70;96.90
45549;DHT22;31270;48.328;10.096;2023-06-10T14:57:56;26.90;97.30
45549;DHT22;31270;48.328;10.096;2023-06-10T15:00:23;26.90;97.00
45549;DHT22;31270;48.328;10.096;2023-06-10T15:02:50;26.60;96.00
45549;DHT22;31270;48.328;10.096;2023-06-10T15:05:16;26.40;95.50
45549;DHT22;31270;48.328;10.096;2023-06-10T15:07:42;26.10;95.40
45549;DHT22;31270;48.328;10.096;2023-06-10T15:10:08;26.10;96.30
45549;DHT22;31270;48.328;10.096;2023-06-10T15:12:34;26.00;96.10
45549;DHT22;31270;48.328;10.096;2023-06-10T15:15:00;25.90;97.40
45549;DHT22;31270;48.328;10.096;2023-06-10T15:17:26;25.90;97.00
45549;DHT22;31270;48.328;10.096;2023-06-10T15:19:52;25.80;97.80
45549;DHT22;31270;48.328;10.096;2023-06-10T15:22:17;25.70;98.20
45549;DHT22;31270;48.328;10.096;2023-06-10T15:24:43;25.60;97.50
45549;DHT22;31270;48.328;10.096;2023-06-10T15:27:08;25.50;97.50
45549;DHT22;31270;48.328;10.096;2023-06-10T15:29:34;25.60;98.30
45549;DHT22;31270;48.328;10.096;2023-06-10T15:32:00;25.60;97.70